<?xml version="1.0" encoding="UTF-8" standalone="no" ?>
<gpx xmlns="http://www.topografix.com/GPX/1/1" xmlns:xsi="http://www.w3.org/2001/XMLSchema-instance" xsi:schemaLocation="http://www.topografix.com/GPX/1/1 http://www.topografix.com/GPX/1/1/gpx.xsd" version="1.1" creator="VisuGPX - https://www.visugpx.com">
  <metadata>
    <name>sortie st didier</name>
    <desc><![CDATA[sortie saint didier]]></desc>
  </metadata>
  <trk>
    <name><![CDATA[2014-11-21-02]]></name>
    <trkseg>
      <trkpt lat="44.01044" lon="5.10897">
        <ele>140</ele>
        <time>2014-11-21T09:17:26Z</time>
      </trkpt>
      <trkpt lat="44.01059" lon="5.10894">
        <ele>138.1</ele>
        <time>2014-11-21T09:17:27Z</time>
      </trkpt>
      <trkpt lat="44.01044" lon="5.10931">
        <ele>139.8</ele>
        <time>2014-11-21T09:17:28Z</time>
      </trkpt>
      <trkpt lat="44.01034" lon="5.10918">
        <ele>140.9</ele>
        <time>2014-11-21T09:17:29Z</time>
      </trkpt>
      <trkpt lat="44.01052" lon="5.10911">
        <ele>138.8</ele>
        <time>2014-11-21T09:17:30Z</time>
      </trkpt>
      <trkpt lat="44.0104" lon="5.10913">
        <ele>140.2</ele>
        <time>2014-11-21T09:17:31Z</time>
      </trkpt>
      <trkpt lat="44.0105" lon="5.10908">
        <ele>139.1</ele>
        <time>2014-11-21T09:17:33Z</time>
      </trkpt>
      <trkpt lat="44.01064" lon="5.10923">
        <ele>137.3</ele>
        <time>2014-11-21T09:17:36Z</time>
      </trkpt>
      <trkpt lat="44.01042" lon="5.10908">
        <ele>140</ele>
        <time>2014-11-21T09:17:37Z</time>
      </trkpt>
      <trkpt lat="44.01033" lon="5.10905">
        <ele>141.2</ele>
        <time>2014-11-21T09:17:39Z</time>
      </trkpt>
      <trkpt lat="44.01018" lon="5.10898">
        <ele>143.2</ele>
        <time>2014-11-21T09:17:40Z</time>
      </trkpt>
      <trkpt lat="44.01029" lon="5.10897">
        <ele>141.8</ele>
        <time>2014-11-21T09:17:41Z</time>
      </trkpt>
      <trkpt lat="44.01037" lon="5.10889">
        <ele>141</ele>
        <time>2014-11-21T09:17:43Z</time>
      </trkpt>
      <trkpt lat="44.01047" lon="5.10894">
        <ele>139.5</ele>
        <time>2014-11-21T09:18:28Z</time>
      </trkpt>
      <trkpt lat="44.01035" lon="5.10879">
        <ele>141.3</ele>
        <time>2014-11-21T09:18:32Z</time>
      </trkpt>
      <trkpt lat="44.01025" lon="5.1089">
        <ele>142.5</ele>
        <time>2014-11-21T09:18:34Z</time>
      </trkpt>
      <trkpt lat="44.01027" lon="5.10878">
        <ele>142.4</ele>
        <time>2014-11-21T09:18:35Z</time>
      </trkpt>
      <trkpt lat="44.01015" lon="5.10877">
        <ele>144</ele>
        <time>2014-11-21T09:18:37Z</time>
      </trkpt>
      <trkpt lat="44.01011" lon="5.10858">
        <ele>144.9</ele>
        <time>2014-11-21T09:18:40Z</time>
      </trkpt>
      <trkpt lat="44.01012" lon="5.10872">
        <ele>144.4</ele>
        <time>2014-11-21T09:18:45Z</time>
      </trkpt>
      <trkpt lat="44.01003" lon="5.10875">
        <ele>145.7</ele>
        <time>2014-11-21T09:19:00Z</time>
      </trkpt>
      <trkpt lat="44.00993" lon="5.10875">
        <ele>146.7</ele>
        <time>2014-11-21T09:19:08Z</time>
      </trkpt>
      <trkpt lat="44.00985" lon="5.10882">
        <ele>147.4</ele>
        <time>2014-11-21T09:19:21Z</time>
      </trkpt>
      <trkpt lat="44.00977" lon="5.10888">
        <ele>148.1</ele>
        <time>2014-11-21T09:19:29Z</time>
      </trkpt>
      <trkpt lat="44.00967" lon="5.10889">
        <ele>149.1</ele>
        <time>2014-11-21T09:19:46Z</time>
      </trkpt>
      <trkpt lat="44.00963" lon="5.10878">
        <ele>149.6</ele>
        <time>2014-11-21T09:19:53Z</time>
      </trkpt>
      <trkpt lat="44.00959" lon="5.10866">
        <ele>149.9</ele>
        <time>2014-11-21T09:20:01Z</time>
      </trkpt>
      <trkpt lat="44.00954" lon="5.10854">
        <ele>150.4</ele>
        <time>2014-11-21T09:20:09Z</time>
      </trkpt>
      <trkpt lat="44.00948" lon="5.10845">
        <ele>150.8</ele>
        <time>2014-11-21T09:20:17Z</time>
      </trkpt>
      <trkpt lat="44.00943" lon="5.10835">
        <ele>151.1</ele>
        <time>2014-11-21T09:20:26Z</time>
      </trkpt>
      <trkpt lat="44.00936" lon="5.10825">
        <ele>151.7</ele>
        <time>2014-11-21T09:20:36Z</time>
      </trkpt>
      <trkpt lat="44.00931" lon="5.10815">
        <ele>152.3</ele>
        <time>2014-11-21T09:20:46Z</time>
      </trkpt>
      <trkpt lat="44.00925" lon="5.10804">
        <ele>152.8</ele>
        <time>2014-11-21T09:20:56Z</time>
      </trkpt>
      <trkpt lat="44.0092" lon="5.10793">
        <ele>153.3</ele>
        <time>2014-11-21T09:21:07Z</time>
      </trkpt>
      <trkpt lat="44.00914" lon="5.10783">
        <ele>153.7</ele>
        <time>2014-11-21T09:21:16Z</time>
      </trkpt>
      <trkpt lat="44.00907" lon="5.10773">
        <ele>153.9</ele>
        <time>2014-11-21T09:21:25Z</time>
      </trkpt>
      <trkpt lat="44.00903" lon="5.10762">
        <ele>154.1</ele>
        <time>2014-11-21T09:21:35Z</time>
      </trkpt>
      <trkpt lat="44.00897" lon="5.10751">
        <ele>154.2</ele>
        <time>2014-11-21T09:21:44Z</time>
      </trkpt>
      <trkpt lat="44.00892" lon="5.10739">
        <ele>154</ele>
        <time>2014-11-21T09:21:56Z</time>
      </trkpt>
      <trkpt lat="44.00888" lon="5.10728">
        <ele>153.8</ele>
        <time>2014-11-21T09:22:09Z</time>
      </trkpt>
      <trkpt lat="44.00881" lon="5.10719">
        <ele>153.7</ele>
        <time>2014-11-21T09:22:18Z</time>
      </trkpt>
      <trkpt lat="44.00874" lon="5.10709">
        <ele>153.5</ele>
        <time>2014-11-21T09:22:28Z</time>
      </trkpt>
      <trkpt lat="44.00865" lon="5.10711">
        <ele>153.7</ele>
        <time>2014-11-21T09:22:37Z</time>
      </trkpt>
      <trkpt lat="44.00855" lon="5.10716">
        <ele>153.9</ele>
        <time>2014-11-21T09:22:46Z</time>
      </trkpt>
      <trkpt lat="44.00847" lon="5.10723">
        <ele>154.2</ele>
        <time>2014-11-21T09:22:56Z</time>
      </trkpt>
      <trkpt lat="44.00839" lon="5.10729">
        <ele>154.4</ele>
        <time>2014-11-21T09:23:05Z</time>
      </trkpt>
      <trkpt lat="44.00775" lon="5.10767">
        <ele>156.4</ele>
        <time>2014-11-21T09:24:22Z</time>
      </trkpt>
      <trkpt lat="44.00775" lon="5.1078">
        <ele>156.4</ele>
        <time>2014-11-21T09:24:30Z</time>
      </trkpt>
      <trkpt lat="44.00768" lon="5.10788">
        <ele>156.6</ele>
        <time>2014-11-21T09:24:38Z</time>
      </trkpt>
      <trkpt lat="44.0076" lon="5.10797">
        <ele>156.8</ele>
        <time>2014-11-21T09:24:48Z</time>
      </trkpt>
      <trkpt lat="44.00753" lon="5.10805">
        <ele>156.9</ele>
        <time>2014-11-21T09:24:58Z</time>
      </trkpt>
      <trkpt lat="44.00745" lon="5.10812">
        <ele>157.2</ele>
        <time>2014-11-21T09:25:08Z</time>
      </trkpt>
      <trkpt lat="44.00738" lon="5.10821">
        <ele>157.5</ele>
        <time>2014-11-21T09:25:17Z</time>
      </trkpt>
      <trkpt lat="44.00729" lon="5.10827">
        <ele>157.9</ele>
        <time>2014-11-21T09:25:29Z</time>
      </trkpt>
      <trkpt lat="44.00722" lon="5.10834">
        <ele>158.4</ele>
        <time>2014-11-21T09:25:40Z</time>
      </trkpt>
      <trkpt lat="44.00713" lon="5.10839">
        <ele>158.8</ele>
        <time>2014-11-21T09:25:49Z</time>
      </trkpt>
      <trkpt lat="44.00706" lon="5.10848">
        <ele>159.1</ele>
        <time>2014-11-21T09:26:00Z</time>
      </trkpt>
      <trkpt lat="44.00699" lon="5.10857">
        <ele>159.5</ele>
        <time>2014-11-21T09:26:11Z</time>
      </trkpt>
      <trkpt lat="44.00692" lon="5.10866">
        <ele>159.8</ele>
        <time>2014-11-21T09:26:20Z</time>
      </trkpt>
      <trkpt lat="44.00685" lon="5.10876">
        <ele>160.1</ele>
        <time>2014-11-21T09:26:28Z</time>
      </trkpt>
      <trkpt lat="44.00677" lon="5.10883">
        <ele>160.5</ele>
        <time>2014-11-21T09:26:38Z</time>
      </trkpt>
      <trkpt lat="44.0067" lon="5.10891">
        <ele>160.8</ele>
        <time>2014-11-21T09:26:50Z</time>
      </trkpt>
      <trkpt lat="44.00662" lon="5.10898">
        <ele>161.1</ele>
        <time>2014-11-21T09:27:00Z</time>
      </trkpt>
      <trkpt lat="44.00653" lon="5.10902">
        <ele>161.3</ele>
        <time>2014-11-21T09:27:10Z</time>
      </trkpt>
      <trkpt lat="44.00645" lon="5.10908">
        <ele>161.5</ele>
        <time>2014-11-21T09:27:19Z</time>
      </trkpt>
      <trkpt lat="44.00639" lon="5.10917">
        <ele>161.7</ele>
        <time>2014-11-21T09:27:28Z</time>
      </trkpt>
      <trkpt lat="44.00631" lon="5.10924">
        <ele>161.8</ele>
        <time>2014-11-21T09:27:39Z</time>
      </trkpt>
      <trkpt lat="44.00622" lon="5.10928">
        <ele>161.9</ele>
        <time>2014-11-21T09:27:51Z</time>
      </trkpt>
      <trkpt lat="44.00615" lon="5.10937">
        <ele>162</ele>
        <time>2014-11-21T09:28:01Z</time>
      </trkpt>
      <trkpt lat="44.00607" lon="5.10946">
        <ele>162.1</ele>
        <time>2014-11-21T09:28:10Z</time>
      </trkpt>
      <trkpt lat="44.00599" lon="5.10952">
        <ele>162.2</ele>
        <time>2014-11-21T09:28:18Z</time>
      </trkpt>
      <trkpt lat="44.0059" lon="5.10958">
        <ele>162.4</ele>
        <time>2014-11-21T09:28:30Z</time>
      </trkpt>
      <trkpt lat="44.00583" lon="5.10968">
        <ele>162.4</ele>
        <time>2014-11-21T09:28:41Z</time>
      </trkpt>
      <trkpt lat="44.00575" lon="5.10975">
        <ele>162.6</ele>
        <time>2014-11-21T09:28:51Z</time>
      </trkpt>
      <trkpt lat="44.00566" lon="5.10982">
        <ele>162.9</ele>
        <time>2014-11-21T09:29:06Z</time>
      </trkpt>
      <trkpt lat="44.00558" lon="5.10989">
        <ele>163.2</ele>
        <time>2014-11-21T09:29:15Z</time>
      </trkpt>
      <trkpt lat="44.0055" lon="5.10999">
        <ele>163.6</ele>
        <time>2014-11-21T09:29:26Z</time>
      </trkpt>
      <trkpt lat="44.00544" lon="5.11003">
        <ele>163.8</ele>
        <time>2014-11-21T09:30:03Z</time>
      </trkpt>
      <trkpt lat="44.00539" lon="5.11025">
        <ele>163.8</ele>
        <time>2014-11-21T09:31:06Z</time>
      </trkpt>
      <trkpt lat="44.00542" lon="5.11037">
        <ele>163.6</ele>
        <time>2014-11-21T09:31:19Z</time>
      </trkpt>
      <trkpt lat="44.00545" lon="5.11049">
        <ele>163.3</ele>
        <time>2014-11-21T09:31:28Z</time>
      </trkpt>
      <trkpt lat="44.00544" lon="5.11063">
        <ele>163.2</ele>
        <time>2014-11-21T09:31:38Z</time>
      </trkpt>
      <trkpt lat="44.00547" lon="5.11075">
        <ele>163</ele>
        <time>2014-11-21T09:31:47Z</time>
      </trkpt>
      <trkpt lat="44.0055" lon="5.11062">
        <ele>163</ele>
        <time>2014-11-21T09:32:33Z</time>
      </trkpt>
      <trkpt lat="44.00551" lon="5.11049">
        <ele>163.1</ele>
        <time>2014-11-21T09:32:42Z</time>
      </trkpt>
      <trkpt lat="44.00542" lon="5.11046">
        <ele>163.5</ele>
        <time>2014-11-21T09:32:52Z</time>
      </trkpt>
      <trkpt lat="44.00541" lon="5.11031">
        <ele>163.7</ele>
        <time>2014-11-21T09:33:01Z</time>
      </trkpt>
      <trkpt lat="44.00541" lon="5.11019">
        <ele>163.8</ele>
        <time>2014-11-21T09:33:10Z</time>
      </trkpt>
      <trkpt lat="44.00546" lon="5.11008">
        <ele>163.7</ele>
        <time>2014-11-21T09:33:20Z</time>
      </trkpt>
      <trkpt lat="44.00549" lon="5.11009">
        <ele>163.6</ele>
        <time>2014-11-21T09:33:33Z</time>
      </trkpt>
      <trkpt lat="44.00553" lon="5.10997">
        <ele>163.4</ele>
        <time>2014-11-21T10:22:58Z</time>
      </trkpt>
      <trkpt lat="44.00561" lon="5.1099">
        <ele>163.1</ele>
        <time>2014-11-21T10:23:09Z</time>
      </trkpt>
      <trkpt lat="44.00566" lon="5.10979">
        <ele>162.9</ele>
        <time>2014-11-21T10:23:20Z</time>
      </trkpt>
      <trkpt lat="44.00575" lon="5.10972">
        <ele>162.6</ele>
        <time>2014-11-21T10:23:27Z</time>
      </trkpt>
      <trkpt lat="44.00584" lon="5.10967">
        <ele>162.4</ele>
        <time>2014-11-21T10:23:34Z</time>
      </trkpt>
      <trkpt lat="44.0059" lon="5.10958">
        <ele>162.4</ele>
        <time>2014-11-21T10:23:47Z</time>
      </trkpt>
      <trkpt lat="44.006" lon="5.10953">
        <ele>162.2</ele>
        <time>2014-11-21T10:23:56Z</time>
      </trkpt>
      <trkpt lat="44.00605" lon="5.10942">
        <ele>162.2</ele>
        <time>2014-11-21T10:24:09Z</time>
      </trkpt>
      <trkpt lat="44.00612" lon="5.10933">
        <ele>162.1</ele>
        <time>2014-11-21T10:24:22Z</time>
      </trkpt>
      <trkpt lat="44.00621" lon="5.10926">
        <ele>162</ele>
        <time>2014-11-21T10:24:34Z</time>
      </trkpt>
      <trkpt lat="44.00627" lon="5.10917">
        <ele>161.9</ele>
        <time>2014-11-21T10:24:41Z</time>
      </trkpt>
      <trkpt lat="44.00637" lon="5.10912">
        <ele>161.7</ele>
        <time>2014-11-21T10:24:47Z</time>
      </trkpt>
      <trkpt lat="44.00644" lon="5.10905">
        <ele>161.5</ele>
        <time>2014-11-21T10:24:54Z</time>
      </trkpt>
      <trkpt lat="44.00652" lon="5.10898">
        <ele>161.4</ele>
        <time>2014-11-21T10:25:02Z</time>
      </trkpt>
      <trkpt lat="44.0066" lon="5.10892">
        <ele>161.2</ele>
        <time>2014-11-21T10:25:09Z</time>
      </trkpt>
      <trkpt lat="44.00668" lon="5.10885">
        <ele>161</ele>
        <time>2014-11-21T10:25:17Z</time>
      </trkpt>
      <trkpt lat="44.00676" lon="5.10879">
        <ele>160.6</ele>
        <time>2014-11-21T10:25:25Z</time>
      </trkpt>
      <trkpt lat="44.00682" lon="5.10869">
        <ele>160.3</ele>
        <time>2014-11-21T10:25:35Z</time>
      </trkpt>
      <trkpt lat="44.00692" lon="5.10867">
        <ele>159.8</ele>
        <time>2014-11-21T10:25:46Z</time>
      </trkpt>
      <trkpt lat="44.00699" lon="5.10858">
        <ele>159.5</ele>
        <time>2014-11-21T10:25:54Z</time>
      </trkpt>
      <trkpt lat="44.00706" lon="5.10849">
        <ele>159.1</ele>
        <time>2014-11-21T10:26:03Z</time>
      </trkpt>
      <trkpt lat="44.00714" lon="5.10843">
        <ele>158.7</ele>
        <time>2014-11-21T10:26:12Z</time>
      </trkpt>
      <trkpt lat="44.00719" lon="5.10832">
        <ele>158.4</ele>
        <time>2014-11-21T10:26:24Z</time>
      </trkpt>
      <trkpt lat="44.00728" lon="5.10826">
        <ele>157.9</ele>
        <time>2014-11-21T10:26:33Z</time>
      </trkpt>
      <trkpt lat="44.00736" lon="5.10818">
        <ele>157.6</ele>
        <time>2014-11-21T10:26:42Z</time>
      </trkpt>
      <trkpt lat="44.00745" lon="5.1081">
        <ele>157.2</ele>
        <time>2014-11-21T10:26:52Z</time>
      </trkpt>
      <trkpt lat="44.00753" lon="5.10802">
        <ele>156.9</ele>
        <time>2014-11-21T10:27:00Z</time>
      </trkpt>
      <trkpt lat="44.00762" lon="5.10796">
        <ele>156.7</ele>
        <time>2014-11-21T10:27:08Z</time>
      </trkpt>
      <trkpt lat="44.00769" lon="5.10788">
        <ele>156.5</ele>
        <time>2014-11-21T10:27:18Z</time>
      </trkpt>
      <trkpt lat="44.00778" lon="5.1078">
        <ele>156.3</ele>
        <time>2014-11-21T10:27:28Z</time>
      </trkpt>
      <trkpt lat="44.00787" lon="5.10775">
        <ele>156.1</ele>
        <time>2014-11-21T10:27:36Z</time>
      </trkpt>
      <trkpt lat="44.00795" lon="5.10768">
        <ele>155.9</ele>
        <time>2014-11-21T10:27:46Z</time>
      </trkpt>
      <trkpt lat="44.00802" lon="5.10759">
        <ele>155.8</ele>
        <time>2014-11-21T10:27:55Z</time>
      </trkpt>
      <trkpt lat="44.0081" lon="5.10751">
        <ele>155.6</ele>
        <time>2014-11-21T10:28:05Z</time>
      </trkpt>
      <trkpt lat="44.00818" lon="5.10745">
        <ele>155.2</ele>
        <time>2014-11-21T10:28:14Z</time>
      </trkpt>
      <trkpt lat="44.00827" lon="5.10739">
        <ele>154.9</ele>
        <time>2014-11-21T10:28:22Z</time>
      </trkpt>
      <trkpt lat="44.00832" lon="5.10728">
        <ele>154.5</ele>
        <time>2014-11-21T10:28:32Z</time>
      </trkpt>
      <trkpt lat="44.00841" lon="5.10723">
        <ele>154.3</ele>
        <time>2014-11-21T10:28:40Z</time>
      </trkpt>
      <trkpt lat="44.00848" lon="5.10716">
        <ele>154</ele>
        <time>2014-11-21T10:28:51Z</time>
      </trkpt>
      <trkpt lat="44.00843" lon="5.10726">
        <ele>154.3</ele>
        <time>2014-11-21T10:29:11Z</time>
      </trkpt>
      <trkpt lat="44.00836" lon="5.10735">
        <ele>154.6</ele>
        <time>2014-11-21T10:29:20Z</time>
      </trkpt>
      <trkpt lat="44.00828" lon="5.10742">
        <ele>154.9</ele>
        <time>2014-11-21T10:29:30Z</time>
      </trkpt>
      <trkpt lat="44.0082" lon="5.10748">
        <ele>155.3</ele>
        <time>2014-11-21T10:29:39Z</time>
      </trkpt>
      <trkpt lat="44.00814" lon="5.10758">
        <ele>155.5</ele>
        <time>2014-11-21T10:29:48Z</time>
      </trkpt>
      <trkpt lat="44.00806" lon="5.10764">
        <ele>155.7</ele>
        <time>2014-11-21T10:29:57Z</time>
      </trkpt>
      <trkpt lat="44.00798" lon="5.10773">
        <ele>155.8</ele>
        <time>2014-11-21T10:30:06Z</time>
      </trkpt>
      <trkpt lat="44.00794" lon="5.10784">
        <ele>155.9</ele>
        <time>2014-11-21T10:30:17Z</time>
      </trkpt>
      <trkpt lat="44.00802" lon="5.10792">
        <ele>155.8</ele>
        <time>2014-11-21T10:30:25Z</time>
      </trkpt>
      <trkpt lat="44.00805" lon="5.10804">
        <ele>155.7</ele>
        <time>2014-11-21T10:30:34Z</time>
      </trkpt>
      <trkpt lat="44.00814" lon="5.10811">
        <ele>155.5</ele>
        <time>2014-11-21T10:30:44Z</time>
      </trkpt>
      <trkpt lat="44.00818" lon="5.10823">
        <ele>155.4</ele>
        <time>2014-11-21T10:30:52Z</time>
      </trkpt>
      <trkpt lat="44.00827" lon="5.10828">
        <ele>155.1</ele>
        <time>2014-11-21T10:31:01Z</time>
      </trkpt>
      <trkpt lat="44.00836" lon="5.10833">
        <ele>154.9</ele>
        <time>2014-11-21T10:31:11Z</time>
      </trkpt>
      <trkpt lat="44.00841" lon="5.10844">
        <ele>154.7</ele>
        <time>2014-11-21T10:31:20Z</time>
      </trkpt>
      <trkpt lat="44.00846" lon="5.10855">
        <ele>154.6</ele>
        <time>2014-11-21T10:31:31Z</time>
      </trkpt>
      <trkpt lat="44.00852" lon="5.10864">
        <ele>154.4</ele>
        <time>2014-11-21T10:31:40Z</time>
      </trkpt>
      <trkpt lat="44.00859" lon="5.10873">
        <ele>154.3</ele>
        <time>2014-11-21T10:31:50Z</time>
      </trkpt>
      <trkpt lat="44.00866" lon="5.10882">
        <ele>154.3</ele>
        <time>2014-11-21T10:31:59Z</time>
      </trkpt>
      <trkpt lat="44.00874" lon="5.1089">
        <ele>154.3</ele>
        <time>2014-11-21T10:32:12Z</time>
      </trkpt>
      <trkpt lat="44.0088" lon="5.109">
        <ele>154.4</ele>
        <time>2014-11-21T10:32:20Z</time>
      </trkpt>
      <trkpt lat="44.00888" lon="5.10908">
        <ele>154.6</ele>
        <time>2014-11-21T10:32:28Z</time>
      </trkpt>
      <trkpt lat="44.00898" lon="5.10909">
        <ele>154.6</ele>
        <time>2014-11-21T10:32:37Z</time>
      </trkpt>
      <trkpt lat="44.00907" lon="5.10905">
        <ele>154.6</ele>
        <time>2014-11-21T10:32:47Z</time>
      </trkpt>
      <trkpt lat="44.00915" lon="5.10899">
        <ele>154.6</ele>
        <time>2014-11-21T10:32:59Z</time>
      </trkpt>
      <trkpt lat="44.00925" lon="5.10895">
        <ele>153.6</ele>
        <time>2014-11-21T10:33:05Z</time>
      </trkpt>
      <trkpt lat="44.00934" lon="5.10891">
        <ele>152.5</ele>
        <time>2014-11-21T10:33:15Z</time>
      </trkpt>
      <trkpt lat="44.00944" lon="5.10886">
        <ele>151.5</ele>
        <time>2014-11-21T10:33:23Z</time>
      </trkpt>
      <trkpt lat="44.00952" lon="5.10879">
        <ele>150.6</ele>
        <time>2014-11-21T10:33:31Z</time>
      </trkpt>
      <trkpt lat="44.00961" lon="5.10874">
        <ele>149.8</ele>
        <time>2014-11-21T10:33:42Z</time>
      </trkpt>
      <trkpt lat="44.00966" lon="5.10884">
        <ele>149.2</ele>
        <time>2014-11-21T10:33:52Z</time>
      </trkpt>
      <trkpt lat="44.00977" lon="5.10883">
        <ele>148.2</ele>
        <time>2014-11-21T10:34:07Z</time>
      </trkpt>
      <trkpt lat="44.00984" lon="5.10876">
        <ele>147.5</ele>
        <time>2014-11-21T10:34:14Z</time>
      </trkpt>
      <trkpt lat="44.00993" lon="5.10872">
        <ele>146.7</ele>
        <time>2014-11-21T10:34:31Z</time>
      </trkpt>
      <trkpt lat="44.01003" lon="5.10875">
        <ele>145.7</ele>
        <time>2014-11-21T10:34:39Z</time>
      </trkpt>
      <trkpt lat="44.01012" lon="5.1088">
        <ele>144.3</ele>
        <time>2014-11-21T10:35:04Z</time>
      </trkpt>
      <trkpt lat="44.0102" lon="5.10885">
        <ele>143.2</ele>
        <time>2014-11-21T10:35:14Z</time>
      </trkpt>
      <trkpt lat="44.01019" lon="5.10885">
        <ele>143.3</ele>
        <time>2014-11-21T10:35:22Z</time>
      </trkpt>
    </trkseg>
  </trk>
</gpx>